sensor_id;sensor_type;location;lat;lon;timestamp;temperature;humidity
44247;DHT22;29922;0.000;0.000;2022-08-20T00:05:19;18.50;64.30
44247;DHT22;29922;0.000;0.000;2022-08-20T00:10:45;18.50;64.30
44247;DHT22;29922;0.000;0.000;2022-08-20T00:16:07;18.50;64.20
44247;DHT22;29922;0.000;0.000;2022-08-20T00:21:28;18.50;64.20
44247;DHT22;29922;0.000;0.000;2022-08-20T00:26:50;18.50;64.20
44247;DHT22;29922;0.000;0.000;2022-08-20T00:32:11;18.50;64.10
44247;DHT22;29922;0.000;0.000;2022-08-20T00:37:31;18.50;64.10
44247;DHT22;29922;0.000;0.000;2022-08-20T00:42:55;18.50;64.10
44247;DHT22;29922;0.000;0.000;2022-08-20T00:48:17;18.50;64.00
44247;DHT22;29922;0.000;0.000;2022-08-20T00:53:38;18.50;64.00
44247;DHT22;29922;0.000;0.000;2022-08-20T00:59:01;18.50;64.00
44247;DHT22;29922;0.000;0.000;2022-08-20T01:04:25;18.50;64.00
44247;DHT22;29922;0.000;0.000;2022-08-20T01:09:47;18.50;63.90
44247;DHT22;29922;0.000;0.000;2022-08-20T01:15:11;18.50;63.90
44247;DHT22;29922;0.000;0.000;2022-08-20T01:20:38;18.50;64.70
44247;DHT22;29922;0.000;0.000;2022-08-20T01:26:04;18.50;63.90
44247;DHT22;29922;0.000;0.000;2022-08-20T01:31:30;18.50;63.80
44247;DHT22;29922;0.000;0.000;2022-08-20T01:36:53;18.50;63.80
44247;DHT22;29922;0.000;0.000;2022-08-20T01:42:19;18.50;63.80
44247;DHT22;29922;0.000;0.000;2022-08-20T01:47:45;18.50;63.80
44247;DHT22;29922;0.000;0.000;2022-08-20T01:53:16;18.50;63.70
44247;DHT22;29922;0.000;0.000;2022-08-20T01:58:41;18.50;63.70
44247;DHT22;29922;0.000;0.000;2022-08-20T02:04:05;18.50;63.70
44247;DHT22;29922;0.000;0.000;2022-08-20T02:09:30;18.50;63.70
44247;DHT22;29922;0.000;0.000;2022-08-20T02:14:55;18.50;63.70
44247;DHT22;29922;0.000;0.000;2022-08-20T02:20:17;18.50;63.70
44247;DHT22;29922;0.000;0.000;2022-08-20T02:25:41;18.50;63.60
44247;DHT22;29922;0.000;0.000;2022-08-20T02:31:06;18.50;63.60
44247;DHT22;29922;0.000;0.000;2022-08-20T02:36:27;18.50;63.60
44247;DHT22;29922;0.000;0.000;2022-08-20T02:41:47;18.50;63.50
44247;DHT22;29922;0.000;0.000;2022-08-20T02:47:10;18.50;63.60
44247;DHT22;29922;0.000;0.000;2022-08-20T02:52:30;18.50;63.50
44247;DHT22;29922;0.000;0.000;2022-08-20T02:57:52;18.50;63.50
44247;DHT22;29922;0.000;0.000;2022-08-20T03:03:16;18.50;63.50
44247;DHT22;29922;0.000;0.000;2022-08-20T03:08:40;18.50;63.50
44247;DHT22;29922;0.000;0.000;2022-08-20T03:14:01;18.50;63.50
44247;DHT22;29922;0.000;0.000;2022-08-20T03:19:23;18.50;63.50
44247;DHT22;29922;0.000;0.000;2022-08-20T03:24:44;18.50;63.50
44247;DHT22;29922;0.000;0.000;2022-08-20T03:30:08;18.50;63.50
44247;DHT22;29922;0.000;0.000;2022-08-20T03:35:32;18.50;63.50
44247;DHT22;29922;0.000;0.000;2022-08-20T03:40:53;18.50;63.50
44247;DHT22;29922;0.000;0.000;2022-08-20T03:46:14;18.50;63.50
44247;DHT22;29922;0.000;0.000;2022-08-20T03:51:36;18.50;63.40
44247;DHT22;29922;0.000;0.000;2022-08-20T03:56:57;18.50;63.40
44247;DHT22;29922;0.000;0.000;2022-08-20T04:02:18;18.50;63.40
44247;DHT22;29922;0.000;0.000;2022-08-20T04:07:40;18.50;63.40
44247;DHT22;29922;0.000;0.000;2022-08-20T04:13:01;18.50;63.40
44247;DHT22;29922;0.000;0.000;2022-08-20T04:18:22;18.50;63.40
44247;DHT22;29922;0.000;0.000;2022-08-20T04:23:45;18.50;63.40
44247;DHT22;29922;0.000;0.000;2022-08-20T04:29:05;18.50;63.30
44247;DHT22;29922;0.000;0.000;2022-08-20T04:34:26;18.50;63.30
44247;DHT22;29922;0.000;0.000;2022-08-20T04:39:49;18.50;63.40
44247;DHT22;29922;0.000;0.000;2022-08-20T04:45:24;18.50;63.30
44247;DHT22;29922;0.000;0.000;2022-08-20T04:50:45;18.50;63.30
44247;DHT22;29922;0.000;0.000;2022-08-20T04:56:08;18.50;63.40
44247;DHT22;29922;0.000;0.000;2022-08-20T05:01:29;18.50;63.30
44247;DHT22;29922;0.000;0.000;2022-08-20T05:06:50;18.50;63.20
44247;DHT22;29922;0.000;0.000;2022-08-20T05:12:12;18.50;63.20
44247;DHT22;29922;0.000;0.000;2022-08-20T05:17:36;18.50;63.30
44247;DHT22;29922;0.000;0.000;2022-08-20T05:22:58;18.50;63.30
44247;DHT22;29922;0.000;0.000;2022-08-20T05:28:22;18.50;63.30
44247;DHT22;29922;0.000;0.000;2022-08-20T05:33:45;18.50;63.20
44247;DHT22;29922;0.000;0.000;2022-08-20T05:39:09;18.50;63.20
44247;DHT22;29922;0.000;0.000;2022-08-20T05:44:32;18.50;63.20
44247;DHT22;29922;0.000;0.000;2022-08-20T05:49:53;18.50;63.30
44247;DHT22;29922;0.000;0.000;2022-08-20T05:55:14;18.50;63.30
44247;DHT22;29922;0.000;0.000;2022-08-20T06:00:36;18.50;63.40
44247;DHT22;29922;0.000;0.000;2022-08-20T06:05:56;18.50;63.30
44247;DHT22;29922;0.000;0.000;2022-08-20T06:11:17;18.50;63.30
44247;DHT22;29922;0.000;0.000;2022-08-20T06:16:40;18.50;63.30
44247;DHT22;29922;0.000;0.000;2022-08-20T06:22:01;18.50;63.30
44247;DHT22;29922;0.000;0.000;2022-08-20T06:27:22;18.50;63.20
44247;DHT22;29922;0.000;0.000;2022-08-20T06:32:45;18.50;63.30
44247;DHT22;29922;0.000;0.000;2022-08-20T06:38:08;18.50;63.20
44247;DHT22;29922;0.000;0.000;2022-08-20T06:43:30;18.50;63.30
44247;DHT22;29922;0.000;0.000;2022-08-20T06:48:53;18.50;63.10
44247;DHT22;29922;0.000;0.000;2022-08-20T06:54:13;18.60;63.20
44247;DHT22;29922;0.000;0.000;2022-08-20T06:59:35;18.60;63.20
44247;DHT22;29922;0.000;0.000;2022-08-20T07:04:57;18.60;63.20
44247;DHT22;29922;0.000;0.000;2022-08-20T07:10:18;18.60;63.30
44247;DHT22;29922;0.000;0.000;2022-08-20T07:15:39;18.60;63.40
44247;DHT22;29922;0.000;0.000;2022-08-20T07:21:01;18.50;63.40
44247;DHT22;29922;0.000;0.000;2022-08-20T07:26:22;18.60;63.50
44247;DHT22;29922;0.000;0.000;2022-08-20T07:31:43;18.60;63.50
44247;DHT22;29922;0.000;0.000;2022-08-20T07:37:23;18.60;63.40
44247;DHT22;29922;0.000;0.000;2022-08-20T07:42:44;18.60;63.90
44247;DHT22;29922;0.000;0.000;2022-08-20T07:48:08;18.60;64.10
44247;DHT22;29922;0.000;0.000;2022-08-20T07:53:33;18.60;64.00
44247;DHT22;29922;0.000;0.000;2022-08-20T07:58:59;18.70;63.80
44247;DHT22;29922;0.000;0.000;2022-08-20T08:04:20;18.70;63.80
44247;DHT22;29922;0.000;0.000;2022-08-20T08:09:44;18.60;63.80
44247;DHT22;29922;0.000;0.000;2022-08-20T08:15:10;18.60;63.70
44247;DHT22;29922;0.000;0.000;2022-08-20T08:20:33;18.60;63.80
44247;DHT22;29922;0.000;0.000;2022-08-20T08:25:57;18.70;63.90
44247;DHT22;29922;0.000;0.000;2022-08-20T08:31:18;18.70;63.70
44247;DHT22;29922;0.000;0.000;2022-08-20T08:36:39;18.70;63.80
44247;DHT22;29922;0.000;0.000;2022-08-20T08:42:18;18.70;63.80
44247;DHT22;29922;0.000;0.000;2022-08-20T08:47:44;18.80;64.00
44247;DHT22;29922;0.000;0.000;2022-08-20T08:53:05;18.80;63.80
44247;DHT22;29922;0.000;0.000;2022-08-20T08:58:28;18.80;63.90
44247;DHT22;29922;0.000;0.000;2022-08-20T09:03:50;18.80;63.80
44247;DHT22;29922;0.000;0.000;2022-08-20T09:09:19;18.80;63.70
44247;DHT22;29922;0.000;0.000;2022-08-20T09:14:42;18.80;63.70
44247;DHT22;29922;0.000;0.000;2022-08-20T09:20:04;18.80;63.80
44247;DHT22;29922;0.000;0.000;2022-08-20T09:25:28;18.80;63.90
44247;DHT22;29922;0.000;0.000;2022-08-20T09:30:50;18.80;64.00
44247;DHT22;29922;0.000;0.000;2022-08-20T09:36:10;18.80;64.00
44247;DHT22;29922;0.000;0.000;2022-08-20T09:41:31;18.80;64.10
44247;DHT22;29922;0.000;0.000;2022-08-20T09:46:53;18.80;64.10
44247;DHT22;29922;0.000;0.000;2022-08-20T09:52:19;18.80;64.00
44247;DHT22;29922;0.000;0.000;2022-08-20T09:57:41;18.80;63.90
44247;DHT22;29922;0.000;0.000;2022-08-20T10:03:04;18.80;63.80
44247;DHT22;29922;0.000;0.000;2022-08-20T10:08:25;18.80;63.90
44247;DHT22;29922;0.000;0.000;2022-08-20T10:13:46;18.80;63.80
44247;DHT22;29922;0.000;0.000;2022-08-20T10:19:07;18.80;63.70
44247;DHT22;29922;0.000;0.000;2022-08-20T10:24:28;18.80;63.80
44247;DHT22;29922;0.000;0.000;2022-08-20T10:29:49;18.80;63.80
44247;DHT22;29922;0.000;0.000;2022-08-20T10:35:11;18.80;63.70
44247;DHT22;29922;0.000;0.000;2022-08-20T10:40:31;18.80;63.70
44247;DHT22;29922;0.000;0.000;2022-08-20T10:45:53;18.80;63.70
44247;DHT22;29922;0.000;0.000;2022-08-20T10:51:15;18.80;63.70
44247;DHT22;29922;0.000;0.000;2022-08-20T10:56:35;18.80;63.20
44247;DHT22;29922;0.000;0.000;2022-08-20T11:01:56;18.80;63.60
44247;DHT22;29922;0.000;0.000;2022-08-20T11:07:19;18.80;63.70
44247;DHT22;29922;0.000;0.000;2022-08-20T11:12:41;18.80;63.50
44247;DHT22;29922;0.000;0.000;2022-08-20T11:18:03;18.80;63.30
44247;DHT22;29922;0.000;0.000;2022-08-20T11:23:25;18.80;63.10
44247;DHT22;29922;0.000;0.000;2022-08-20T11:28:45;18.80;63.20
44247;DHT22;29922;0.000;0.000;2022-08-20T11:34:06;18.80;63.10
44247;DHT22;29922;0.000;0.000;2022-08-20T11:39:28;18.80;63.00
44247;DHT22;29922;0.000;0.000;2022-08-20T11:44:48;18.80;63.10
44247;DHT22;29922;0.000;0.000;2022-08-20T11:50:11;18.90;63.10
44247;DHT22;29922;0.000;0.000;2022-08-20T11:55:35;18.90;62.90
44247;DHT22;29922;0.000;0.000;2022-08-20T12:00:55;18.80;63.10
44247;DHT22;29922;0.000;0.000;2022-08-20T12:06:17;18.80;63.30
44247;DHT22;29922;0.000;0.000;2022-08-20T12:11:39;18.80;63.00
44247;DHT22;29922;0.000;0.000;2022-08-20T12:17:07;18.80;63.00
44247;DHT22;29922;0.000;0.000;2022-08-20T12:22:27;18.80;63.10
44247;DHT22;29922;0.000;0.000;2022-08-20T12:27:50;18.80;63.00
44247;DHT22;29922;0.000;0.000;2022-08-20T12:33:10;18.90;63.40
44247;DHT22;29922;0.000;0.000;2022-08-20T12:38:32;18.90;63.40
44247;DHT22;29922;0.000;0.000;2022-08-20T12:43:55;19.00;63.20
44247;DHT22;29922;0.000;0.000;2022-08-20T12:49:15;19.00;63.00
44247;DHT22;29922;0.000;0.000;2022-08-20T12:54:36;18.90;63.20
44247;DHT22;29922;0.000;0.000;2022-08-20T13:00:03;18.90;63.00
44247;DHT22;29922;0.000;0.000;2022-08-20T13:05:26;18.90;63.00
44247;DHT22;29922;0.000;0.000;2022-08-20T13:10:47;18.90;63.00
44247;DHT22;29922;0.000;0.000;2022-08-20T13:16:09;19.00;63.10
44247;DHT22;29922;0.000;0.000;2022-08-20T13:21:29;19.00;63.10
44247;DHT22;29922;0.000;0.000;2022-08-20T13:26:50;19.00;63.00
44247;DHT22;29922;0.000;0.000;2022-08-20T13:32:12;19.10;63.10
44247;DHT22;29922;0.000;0.000;2022-08-20T13:37:33;19.00;63.00
44247;DHT22;29922;0.000;0.000;2022-08-20T13:42:54;19.10;63.20
44247;DHT22;29922;0.000;0.000;2022-08-20T13:48:16;19.00;63.20
44247;DHT22;29922;0.000;0.000;2022-08-20T13:53:36;19.00;63.50
44247;DHT22;29922;0.000;0.000;2022-08-20T13:58:57;19.10;64.10
44247;DHT22;29922;0.000;0.000;2022-08-20T14:04:19;19.10;64.40
44247;DHT22;29922;0.000;0.000;2022-08-20T14:09:41;19.10;64.30
44247;DHT22;29922;0.000;0.000;2022-08-20T14:15:03;19.10;64.20
44247;DHT22;29922;0.000;0.000;2022-08-20T14:20:29;19.10;64.10
44247;DHT22;29922;0.000;0.000;2022-08-20T14:25:51;19.10;64.40
44247;DHT22;29922;0.000;0.000;2022-08-20T14:31:11;19.10;65.20
44247;DHT22;29922;0.000;0.000;2022-08-20T14:36:33;19.20;66.50
44247;DHT22;29922;0.000;0.000;2022-08-20T14:41:54;19.30;66.40
44247;DHT22;29922;0.000;0.000;2022-08-20T14:47:17;19.30;66.50
44247;DHT22;29922;0.000;0.000;2022-08-20T14:52:41;19.40;65.90
44247;DHT22;29922;0.000;0.000;2022-08-20T14:58:06;19.40;65.30
44247;DHT22;29922;0.000;0.000;2022-08-20T15:03:28;19.30;65.30
44247;DHT22;29922;0.000;0.000;2022-08-20T15:08:50;19.30;65.40
44247;DHT22;29922;0.000;0.000;2022-08-20T15:14:10;19.40;65.40
44247;DHT22;29922;0.000;0.000;2022-08-20T15:19:31;19.40;65.20
44247;DHT22;29922;0.000;0.000;2022-08-20T15:24:53;19.50;65.40
44247;DHT22;29922;0.000;0.000;2022-08-20T15:30:16;19.50;65.20
44247;DHT22;29922;0.000;0.000;2022-08-20T15:35:38;19.50;65.00
44247;DHT22;29922;0.000;0.000;2022-08-20T15:40:59;19.50;64.70
44247;DHT22;29922;0.000;0.000;2022-08-20T15:46:21;19.50;64.50
44247;DHT22;29922;0.000;0.000;2022-08-20T15:51:45;19.60;64.50
44247;DHT22;29922;0.000;0.000;2022-08-20T15:57:11;19.60;64.40
44247;DHT22;29922;0.000;0.000;2022-08-20T16:02:58;19.60;64.30
44247;DHT22;29922;0.000;0.000;2022-08-20T16:08:43;19.50;64.40
44247;DHT22;29922;0.000;0.000;2022-08-20T16:14:16;19.50;64.20
44247;DHT22;29922;0.000;0.000;2022-08-20T16:19:46;19.50;64.30
44247;DHT22;29922;0.000;0.000;2022-08-20T16:25:13;19.40;64.20
44247;DHT22;29922;0.000;0.000;2022-08-20T16:30:40;19.40;64.20
44247;DHT22;29922;0.000;0.000;2022-08-20T16:36:08;19.40;64.00
44247;DHT22;29922;0.000;0.000;2022-08-20T16:41:33;19.40;63.80
44247;DHT22;29922;0.000;0.000;2022-08-20T16:47:00;19.40;63.70
44247;DHT22;29922;0.000;0.000;2022-08-20T16:52:23;19.50;63.50
44247;DHT22;29922;0.000;0.000;2022-08-20T16:57:43;19.40;63.30
44247;DHT22;29922;0.000;0.000;2022-08-20T17:03:09;19.40;63.40
44247;DHT22;29922;0.000;0.000;2022-08-20T17:08:47;19.40;63.40
44247;DHT22;29922;0.000;0.000;2022-08-20T17:14:11;19.40;63.40
44247;DHT22;29922;0.000;0.000;2022-08-20T17:19:34;19.40;63.40
44247;DHT22;29922;0.000;0.000;2022-08-20T17:24:55;19.40;63.30
44247;DHT22;29922;0.000;0.000;2022-08-20T17:30:22;19.30;63.20
44247;DHT22;29922;0.000;0.000;2022-08-20T17:35:53;19.30;63.20
44247;DHT22;29922;0.000;0.000;2022-08-20T17:41:18;19.30;63.20
44247;DHT22;29922;0.000;0.000;2022-08-20T17:46:43;19.30;63.20
44247;DHT22;29922;0.000;0.000;2022-08-20T17:52:11;19.20;63.20
44247;DHT22;29922;0.000;0.000;2022-08-20T17:57:37;19.30;63.30
44247;DHT22;29922;0.000;0.000;2022-08-20T18:03:04;19.20;63.20
44247;DHT22;29922;0.000;0.000;2022-08-20T18:08:36;19.20;63.30
44247;DHT22;29922;0.000;0.000;2022-08-20T18:14:17;19.20;63.30
44247;DHT22;29922;0.000;0.000;2022-08-20T18:20:10;19.20;63.30
44247;DHT22;29922;0.000;0.000;2022-08-20T18:25:44;19.20;63.20
44247;DHT22;29922;0.000;0.000;2022-08-20T18:31:07;19.20;63.30
44247;DHT22;29922;0.000;0.000;2022-08-20T18:36:28;19.10;63.20
44247;DHT22;29922;0.000;0.000;2022-08-20T18:41:58;19.10;63.20
44247;DHT22;29922;0.000;0.000;2022-08-20T18:47:23;19.10;63.10
44247;DHT22;29922;0.000;0.000;2022-08-20T18:52:49;19.10;63.10
44247;DHT22;29922;0.000;0.000;2022-08-20T18:58:13;19.10;63.10
44247;DHT22;29922;0.000;0.000;2022-08-20T19:03:40;19.10;63.20
44247;DHT22;29922;0.000;0.000;2022-08-20T19:09:05;19.10;63.10
44247;DHT22;29922;0.000;0.000;2022-08-20T19:14:51;19.10;63.10
44247;DHT22;29922;0.000;0.000;2022-08-20T19:20:17;19.10;63.20
44247;DHT22;29922;0.000;0.000;2022-08-20T19:25:49;19.10;64.10
44247;DHT22;29922;0.000;0.000;2022-08-20T19:31:15;19.10;63.30
44247;DHT22;29922;0.000;0.000;2022-08-20T19:36:37;19.10;63.20
44247;DHT22;29922;0.000;0.000;2022-08-20T19:42:01;19.10;63.20
44247;DHT22;29922;0.000;0.000;2022-08-20T19:47:29;19.00;63.10
44247;DHT22;29922;0.000;0.000;2022-08-20T19:53:01;19.00;63.10
44247;DHT22;29922;0.000;0.000;2022-08-20T19:58:25;19.00;63.80
44247;DHT22;29922;0.000;0.000;2022-08-20T20:03:56;19.00;63.00
44247;DHT22;29922;0.000;0.000;2022-08-20T20:09:20;19.10;63.30
44247;DHT22;29922;0.000;0.000;2022-08-20T20:14:43;19.00;63.20
44247;DHT22;29922;0.000;0.000;2022-08-20T20:20:20;19.10;63.10
44247;DHT22;29922;0.000;0.000;2022-08-20T20:25:44;19.10;63.20
44247;DHT22;29922;0.000;0.000;2022-08-20T20:31:10;19.10;63.30
44247;DHT22;29922;0.000;0.000;2022-08-20T20:36:36;19.10;63.40
44247;DHT22;29922;0.000;0.000;2022-08-20T20:42:00;19.00;63.10
44247;DHT22;29922;0.000;0.000;2022-08-20T20:47:24;19.00;63.40
44247;DHT22;29922;0.000;0.000;2022-08-20T20:52:50;19.00;63.30
44247;DHT22;29922;0.000;0.000;2022-08-20T20:58:13;19.00;63.40
44247;DHT22;29922;0.000;0.000;2022-08-20T21:03:33;19.00;63.40
44247;DHT22;29922;0.000;0.000;2022-08-20T21:08:57;19.00;63.40
44247;DHT22;29922;0.000;0.000;2022-08-20T21:14:18;19.00;63.40
44247;DHT22;29922;0.000;0.000;2022-08-20T21:19:39;19.00;63.50
44247;DHT22;29922;0.000;0.000;2022-08-20T21:25:02;19.00;63.50
44247;DHT22;29922;0.000;0.000;2022-08-20T21:30:23;19.00;63.50
44247;DHT22;29922;0.000;0.000;2022-08-20T21:35:44;18.90;63.50
44247;DHT22;29922;0.000;0.000;2022-08-20T21:41:06;19.00;63.50
44247;DHT22;29922;0.000;0.000;2022-08-20T21:46:27;19.00;63.60
44247;DHT22;29922;0.000;0.000;2022-08-20T21:51:48;19.00;63.60
44247;DHT22;29922;0.000;0.000;2022-08-20T21:57:16;18.90;63.50
44247;DHT22;29922;0.000;0.000;2022-08-20T22:02:38;18.90;63.50
44247;DHT22;29922;0.000;0.000;2022-08-20T22:07:58;18.90;63.60
44247;DHT22;29922;0.000;0.000;2022-08-20T22:13:21;18.90;63.60
44247;DHT22;29922;0.000;0.000;2022-08-20T22:18:42;18.90;63.50
44247;DHT22;29922;0.000;0.000;2022-08-20T22:24:06;19.00;63.60
44247;DHT22;29922;0.000;0.000;2022-08-20T22:29:29;18.90;63.50
44247;DHT22;29922;0.000;0.000;2022-08-20T22:34:50;19.00;63.60
44247;DHT22;29922;0.000;0.000;2022-08-20T22:40:10;18.90;63.60
44247;DHT22;29922;0.000;0.000;2022-08-20T22:45:33;18.90;63.60
44247;DHT22;29922;0.000;0.000;2022-08-20T22:50:55;18.90;63.60
44247;DHT22;29922;0.000;0.000;2022-08-20T22:56:16;18.90;63.60
44247;DHT22;29922;0.000;0.000;2022-08-20T23:01:39;18.90;63.60
44247;DHT22;29922;0.000;0.000;2022-08-20T23:07:00;18.90;63.50
44247;DHT22;29922;0.000;0.000;2022-08-20T23:12:22;18.90;63.60
44247;DHT22;29922;0.000;0.000;2022-08-20T23:17:44;18.90;63.60
44247;DHT22;29922;0.000;0.000;2022-08-20T23:23:06;18.90;63.60
44247;DHT22;29922;0.000;0.000;2022-08-20T23:28:27;18.90;63.60
44247;DHT22;29922;0.000;0.000;2022-08-20T23:33:49;18.90;64.40
44247;DHT22;29922;0.000;0.000;2022-08-20T23:39:10;18.90;63.60
44247;DHT22;29922;0.000;0.000;2022-08-20T23:44:30;18.90;63.50
44247;DHT22;29922;0.000;0.000;2022-08-20T23:49:52;18.90;63.50
44247;DHT22;29922;0.000;0.000;2022-08-20T23:55:13;18.90;63.40
